Robinson, South Carolina
Current Conditions -  °F | °C
As of 7:35 AM on Sunday 21 Dec 2014 (Local Time) from KHVS Reporting Station
Overcast Overcast  
Wind Chill: 36°   Ceiling: 8000
Heat Index: 39°   Visibility: 7mi
Dew Point: 37°   Wind: 5mph
Humidity: 93%   Direction: 20°NNE
Pressure: 30.27"   Gusts: NA
Location:  34.5053°N, 80.249°W
Report Text: KHVS 211235Z AUTO 02004KT 7SM OVC080 04/03 A3027 RMK AO2
Loading
Personal Weather Stations






























Interactive Weather Map New forecast layout! Learn more

10-Day Weather Forecast

Advertisements
Track Severe Weather on mobile